SUR4070 SPJL-SPJC
Flight info
| Callsign | SUR4070 |
|---|---|
| Flight time | 1h 36m |
| Altitude | 27998 |
| Route | OPKUL UM415 ASOXI ESEDI3 |
| Aircraft | E175/L-S/1200 |
Departure
| Time | 2026-04-20 20:42 |
|---|---|
| Airport | Inca Manco Capac International Airport (SPJL) |
Arrival
| Time | 2026-04-20 22:18 |
|---|---|
| Airport | Jorge Chávez International Airport (SPJC) |
| Time | Latitude | Longitude | Altitude | Speed | Heading |
|---|---|---|---|---|---|
| 2026-04-20 20:34 | -15.47009 | -70.15580 | 12591 ft | 0 kts | 167° |
| 2026-04-20 20:35 | -15.47010 | -70.15579 | 12591 ft | 0 kts | 134° |
| 2026-04-20 20:36 | -15.47010 | -70.15575 | 12591 ft | 0 kts | 64° |
| 2026-04-20 20:36 | -15.47002 | -70.15571 | 12591 ft | 1 kts | 21° |
| 2026-04-20 20:36 | -15.46982 | -70.15578 | 12591 ft | 4 kts | 337° |
| 2026-04-20 20:36 | -15.46956 | -70.15601 | 12591 ft | 5 kts | 306° |
| 2026-04-20 20:37 | -15.46938 | -70.15636 | 12591 ft | 5 kts | 295° |
| 2026-04-20 20:37 | -15.46917 | -70.15668 | 12591 ft | 5 kts | 319° |
| 2026-04-20 20:37 | -15.46888 | -70.15680 | 12592 ft | 4 kts | 1° |
| 2026-04-20 20:37 | -15.46860 | -70.15675 | 12591 ft | 4 kts | 13° |
| 2026-04-20 20:38 | -15.46832 | -70.15668 | 12591 ft | 4 kts | 12° |
| 2026-04-20 20:38 | -15.46805 | -70.15663 | 12591 ft | 4 kts | 10° |
| 2026-04-20 20:38 | -15.46741 | -70.15664 | 12591 ft | 13 kts | 329° |
| 2026-04-20 20:38 | -15.46704 | -70.15746 | 12593 ft | 12 kts | 291° |
| 2026-04-20 20:39 | -15.46667 | -70.15843 | 12594 ft | 18 kts | 291° |
| 2026-04-20 20:39 | -15.46607 | -70.15996 | 12594 ft | 27 kts | 288° |
| 2026-04-20 20:39 | -15.46525 | -70.16208 | 12593 ft | 36 kts | 291° |
| 2026-04-20 20:39 | -15.46420 | -70.16479 | 12593 ft | 44 kts | 291° |
| 2026-04-20 20:40 | -15.46293 | -70.16804 | 12592 ft | 52 kts | 291° |
| 2026-04-20 20:40 | -15.46171 | -70.17119 | 12592 ft | 40 kts | 291° |
| 2026-04-20 20:40 | -15.46081 | -70.17345 | 12592 ft | 27 kts | 294° |
| 2026-04-20 20:40 | -15.46028 | -70.17509 | 12592 ft | 18 kts | 273° |
| 2026-04-20 20:41 | -15.46008 | -70.17588 | 12591 ft | 11 kts | 10° |
| 2026-04-20 20:41 | -15.45994 | -70.17561 | 12591 ft | 0 kts | 110° |
| 2026-04-20 20:41 | -15.46050 | -70.17410 | 12591 ft | 52 kts | 111° |
| 2026-04-20 20:41 | -15.46259 | -70.16869 | 12592 ft | 107 kts | 111° |
| 2026-04-20 20:42 | -15.46590 | -70.16014 | 12594 ft | 147 kts | 112° |
| 2026-04-20 20:42 | -15.47025 | -70.14954 | 12716 ft | 167 kts | 115° |
| 2026-04-20 20:42 | -15.47500 | -70.13807 | 12909 ft | 184 kts | 103° |
| 2026-04-20 20:42 | -15.47852 | -70.12483 | 13170 ft | 197 kts | 108° |
| 2026-04-20 20:43 | -15.48269 | -70.11138 | 13472 ft | 200 kts | 108° |
| 2026-04-20 20:43 | -15.48725 | -70.09726 | 13766 ft | 215 kts | 109° |
| 2026-04-20 20:43 | -15.49229 | -70.08209 | 14065 ft | 230 kts | 109° |
| 2026-04-20 20:43 | -15.49807 | -70.06587 | 14359 ft | 246 kts | 119° |
| 2026-04-20 20:44 | -15.51022 | -70.05331 | 14675 ft | 258 kts | 156° |
| 2026-04-20 20:44 | -15.52816 | -70.05065 | 15026 ft | 270 kts | 191° |
| 2026-04-20 20:44 | -15.54507 | -70.05939 | 15365 ft | 284 kts | 225° |
| 2026-04-20 20:44 | -15.55517 | -70.07733 | 15708 ft | 296 kts | 256° |
| 2026-04-20 20:45 | -15.55887 | -70.09885 | 16019 ft | 309 kts | 268° |
| 2026-04-20 20:45 | -15.55439 | -70.12050 | 16308 ft | 317 kts | 298° |
| 2026-04-20 20:45 | -15.53974 | -70.13739 | 16627 ft | 320 kts | 328° |
| 2026-04-20 20:45 | -15.51883 | -70.14463 | 16944 ft | 322 kts | 358° |
| 2026-04-20 20:46 | -15.49724 | -70.14039 | 17270 ft | 322 kts | 28° |
| 2026-04-20 20:46 | -15.48022 | -70.12550 | 17589 ft | 321 kts | 58° |
| 2026-04-20 20:46 | -15.47267 | -70.10410 | 17893 ft | 324 kts | 87° |
| 2026-04-20 20:46 | -15.47005 | -70.08057 | 18183 ft | 334 kts | 72° |
| 2026-04-20 20:47 | -15.45813 | -70.06004 | 18459 ft | 344 kts | 44° |
| 2026-04-20 20:47 | -15.43764 | -70.04680 | 18741 ft | 352 kts | 17° |
| 2026-04-20 20:47 | -15.41326 | -70.04432 | 19008 ft | 357 kts | 351° |
| 2026-04-20 20:47 | -15.38981 | -70.05333 | 19277 ft | 362 kts | 324° |
| 2026-04-20 20:48 | -15.37232 | -70.07215 | 19544 ft | 366 kts | 299° |
| 2026-04-20 20:48 | -15.36431 | -70.09720 | 19817 ft | 369 kts | 274° |
| 2026-04-20 20:48 | -15.36646 | -70.12372 | 20138 ft | 372 kts | 259° |
| 2026-04-20 20:48 | -15.37106 | -70.15015 | 20435 ft | 376 kts | 259° |
| 2026-04-20 20:49 | -15.37573 | -70.17703 | 20731 ft | 380 kts | 260° |
| 2026-04-20 20:49 | -15.38041 | -70.20390 | 21015 ft | 384 kts | 260° |
| 2026-04-20 20:49 | -15.38518 | -70.23137 | 21301 ft | 387 kts | 260° |
| 2026-04-20 20:49 | -15.38993 | -70.25863 | 21599 ft | 389 kts | 260° |
| 2026-04-20 20:50 | -15.39478 | -70.28653 | 21902 ft | 392 kts | 260° |
| 2026-04-20 20:50 | -15.39934 | -70.31448 | 22197 ft | 393 kts | 265° |
| 2026-04-20 20:50 | -15.39758 | -70.34242 | 22515 ft | 393 kts | 282° |
| 2026-04-20 20:50 | -15.39064 | -70.36978 | 22836 ft | 393 kts | 287° |
| 2026-04-20 20:51 | -15.38218 | -70.39659 | 23139 ft | 395 kts | 289° |
| 2026-04-20 20:51 | -15.37315 | -70.42339 | 23437 ft | 396 kts | 289° |
| 2026-04-20 20:51 | -15.36396 | -70.45007 | 23736 ft | 397 kts | 289° |
| 2026-04-20 20:51 | -15.35452 | -70.47729 | 24066 ft | 397 kts | 290° |
| 2026-04-20 20:52 | -15.34522 | -70.50402 | 24386 ft | 398 kts | 290° |
| 2026-04-20 20:52 | -15.33574 | -70.53123 | 24703 ft | 398 kts | 289° |
| 2026-04-20 20:52 | -15.32636 | -70.55811 | 25013 ft | 398 kts | 290° |
| 2026-04-20 20:52 | -15.31698 | -70.58501 | 25311 ft | 398 kts | 290° |
| 2026-04-20 20:53 | -15.30751 | -70.61217 | 25616 ft | 398 kts | 290° |
| 2026-04-20 20:53 | -15.29813 | -70.63901 | 25915 ft | 397 kts | 290° |
| 2026-04-20 20:53 | -15.28875 | -70.66588 | 26215 ft | 397 kts | 290° |
| 2026-04-20 20:53 | -15.27937 | -70.69272 | 26520 ft | 396 kts | 290° |
| 2026-04-20 20:54 | -15.27004 | -70.71941 | 26829 ft | 395 kts | 290° |
| 2026-04-20 20:54 | -15.26066 | -70.74623 | 27131 ft | 395 kts | 290° |
| 2026-04-20 20:54 | -15.25133 | -70.77290 | 27435 ft | 394 kts | 290° |
| 2026-04-20 20:54 | -15.24219 | -70.79900 | 27727 ft | 393 kts | 290° |
| 2026-04-20 20:55 | -15.23169 | -70.82528 | 28033 ft | 391 kts | 299° |
| 2026-04-20 20:55 | -15.21640 | -70.84839 | 28355 ft | 389 kts | 310° |
| 2026-04-20 20:55 | -15.19710 | -70.86780 | 28681 ft | 388 kts | 321° |
| 2026-04-20 20:55 | -15.17473 | -70.88341 | 28887 ft | 390 kts | 327° |
| 2026-04-20 20:56 | -15.12772 | -70.91372 | 28888 ft | 404 kts | 327° |
| 2026-04-20 20:56 | -15.07933 | -70.94488 | 28889 ft | 417 kts | 327° |
| 2026-04-20 20:57 | -15.03038 | -70.97890 | 28863 ft | 427 kts | 318° |
| 2026-04-20 20:57 | -14.99260 | -71.02669 | 28868 ft | 436 kts | 299° |
| 2026-04-20 20:58 | -14.96984 | -71.08520 | 28877 ft | 444 kts | 293° |
| 2026-04-20 20:58 | -14.94244 | -71.14310 | 28879 ft | 449 kts | 297° |
| 2026-04-20 20:59 | -14.91337 | -71.20011 | 28885 ft | 448 kts | 298° |
| 2026-04-20 20:59 | -14.88418 | -71.25696 | 28889 ft | 448 kts | 298° |
| 2026-04-20 21:00 | -14.85485 | -71.31403 | 28893 ft | 448 kts | 298° |
| 2026-04-20 21:00 | -14.82559 | -71.37089 | 28897 ft | 448 kts | 298° |
| 2026-04-20 21:01 | -14.79651 | -71.42736 | 28898 ft | 448 kts | 298° |
| 2026-04-20 21:01 | -14.76722 | -71.48422 | 28905 ft | 448 kts | 298° |
| 2026-04-20 21:02 | -14.73768 | -71.54151 | 28908 ft | 450 kts | 298° |
| 2026-04-20 21:02 | -14.70850 | -71.59806 | 28902 ft | 450 kts | 298° |
| 2026-04-20 21:03 | -14.67883 | -71.65552 | 28902 ft | 451 kts | 298° |
| 2026-04-20 21:03 | -14.64951 | -71.71226 | 28909 ft | 451 kts | 298° |
| 2026-04-20 21:04 | -14.62008 | -71.76916 | 28915 ft | 450 kts | 298° |
| 2026-04-20 21:04 | -14.59035 | -71.82660 | 28896 ft | 451 kts | 298° |
| 2026-04-20 21:05 | -14.56087 | -71.88352 | 28890 ft | 449 kts | 298° |
| 2026-04-20 21:05 | -14.53139 | -71.94041 | 28873 ft | 451 kts | 298° |
| 2026-04-20 21:06 | -14.50176 | -71.99752 | 28860 ft | 451 kts | 298° |
| 2026-04-20 21:06 | -14.47219 | -72.05449 | 28877 ft | 451 kts | 298° |
| 2026-04-20 21:07 | -14.44265 | -72.11136 | 28853 ft | 450 kts | 298° |
| 2026-04-20 21:07 | -14.41298 | -72.16843 | 28837 ft | 451 kts | 298° |
| 2026-04-20 21:08 | -14.38474 | -72.22609 | 28796 ft | 452 kts | 291° |
| 2026-04-20 21:08 | -14.37224 | -72.29073 | 28800 ft | 455 kts | 272° |
| 2026-04-20 21:09 | -14.37773 | -72.35659 | 28857 ft | 454 kts | 264° |
| 2026-04-20 21:09 | -14.38526 | -72.42106 | 28879 ft | 455 kts | 264° |
| 2026-04-20 21:10 | -14.39277 | -72.48553 | 28871 ft | 453 kts | 264° |
| 2026-04-20 21:10 | -14.40029 | -72.55018 | 28900 ft | 454 kts | 264° |
| 2026-04-20 21:11 | -14.40784 | -72.61512 | 28883 ft | 454 kts | 264° |
| 2026-04-20 21:11 | -14.41531 | -72.67957 | 28893 ft | 454 kts | 265° |
| 2026-04-20 21:12 | -14.41244 | -72.74401 | 28872 ft | 453 kts | 283° |
| 2026-04-20 21:12 | -14.38854 | -72.80394 | 28875 ft | 454 kts | 302° |
| 2026-04-20 21:13 | -14.35736 | -72.86028 | 28842 ft | 454 kts | 294° |
| 2026-04-20 21:13 | -14.33197 | -72.92003 | 28813 ft | 453 kts | 293° |
| 2026-04-20 21:14 | -14.30714 | -72.97964 | 28806 ft | 451 kts | 293° |
| 2026-04-20 21:14 | -14.28242 | -73.03896 | 28799 ft | 450 kts | 294° |
| 2026-04-20 21:15 | -14.25758 | -73.09855 | 28774 ft | 452 kts | 294° |
| 2026-04-20 21:15 | -14.23279 | -73.15798 | 28792 ft | 453 kts | 293° |
| 2026-04-20 21:16 | -14.20777 | -73.21790 | 28782 ft | 452 kts | 293° |
| 2026-04-20 21:16 | -14.18285 | -73.27756 | 28769 ft | 455 kts | 293° |
| 2026-04-20 21:17 | -14.15806 | -73.33683 | 28773 ft | 455 kts | 294° |
| 2026-04-20 21:17 | -14.13298 | -73.39677 | 28736 ft | 452 kts | 294° |
| 2026-04-20 21:18 | -14.10817 | -73.45598 | 28737 ft | 452 kts | 294° |
| 2026-04-20 21:18 | -14.08330 | -73.51531 | 28746 ft | 452 kts | 294° |
| 2026-04-20 21:19 | -14.05832 | -73.57485 | 28747 ft | 453 kts | 294° |
| 2026-04-20 21:20 | -14.02086 | -73.66406 | 28744 ft | 454 kts | 294° |
| 2026-04-20 21:20 | -13.99579 | -73.72370 | 28747 ft | 454 kts | 294° |
| 2026-04-20 21:21 | -13.97068 | -73.78338 | 28753 ft | 453 kts | 294° |
| 2026-04-20 21:21 | -13.94582 | -73.84242 | 28768 ft | 452 kts | 294° |
| 2026-04-20 21:22 | -13.92082 | -73.90175 | 28752 ft | 453 kts | 294° |
| 2026-04-20 21:22 | -13.89571 | -73.96128 | 28768 ft | 453 kts | 294° |
| 2026-04-20 21:23 | -13.87071 | -74.02055 | 28771 ft | 453 kts | 294° |
| 2026-04-20 21:23 | -13.84568 | -74.07980 | 28761 ft | 453 kts | 294° |
| 2026-04-20 21:24 | -13.82066 | -74.13897 | 28757 ft | 453 kts | 294° |
| 2026-04-20 21:24 | -13.79565 | -74.19812 | 28755 ft | 450 kts | 294° |
| 2026-04-20 21:25 | -13.77109 | -74.25610 | 28755 ft | 451 kts | 294° |
| 2026-04-20 21:25 | -13.74596 | -74.31543 | 28755 ft | 451 kts | 294° |
| 2026-04-20 21:26 | -13.72097 | -74.37437 | 28752 ft | 451 kts | 294° |
| 2026-04-20 21:26 | -13.69582 | -74.43363 | 28760 ft | 452 kts | 294° |
| 2026-04-20 21:27 | -13.67075 | -74.49268 | 28763 ft | 450 kts | 294° |
| 2026-04-20 21:27 | -13.64572 | -74.55156 | 28767 ft | 451 kts | 294° |
| 2026-04-20 21:28 | -13.62068 | -74.61043 | 28762 ft | 449 kts | 294° |
| 2026-04-20 21:28 | -13.59555 | -74.66947 | 28773 ft | 450 kts | 294° |
| 2026-04-20 21:29 | -13.57043 | -74.72844 | 28808 ft | 450 kts | 294° |
| 2026-04-20 21:29 | -13.54537 | -74.78722 | 28791 ft | 451 kts | 294° |
| 2026-04-20 21:30 | -13.52010 | -74.84645 | 28793 ft | 450 kts | 294° |
| 2026-04-20 21:30 | -13.49501 | -74.90522 | 28817 ft | 450 kts | 294° |
| 2026-04-20 21:31 | -13.46967 | -74.96453 | 28851 ft | 449 kts | 294° |
| 2026-04-20 21:31 | -13.44458 | -75.02320 | 28877 ft | 451 kts | 294° |
| 2026-04-20 21:32 | -13.41920 | -75.08252 | 28854 ft | 451 kts | 294° |
| 2026-04-20 21:32 | -13.39403 | -75.14128 | 28847 ft | 450 kts | 294° |
| 2026-04-20 21:33 | -13.36888 | -75.19997 | 28829 ft | 450 kts | 294° |
| 2026-04-20 21:33 | -13.34360 | -75.25892 | 28819 ft | 450 kts | 295° |
| 2026-04-20 21:34 | -13.31850 | -75.31740 | 28791 ft | 449 kts | 294° |
| 2026-04-20 21:34 | -13.29318 | -75.37635 | 28781 ft | 450 kts | 294° |
| 2026-04-20 21:35 | -13.26788 | -75.43519 | 28744 ft | 452 kts | 294° |
| 2026-04-20 21:35 | -13.24255 | -75.49409 | 28759 ft | 451 kts | 294° |
| 2026-04-20 21:36 | -13.21708 | -75.55324 | 28757 ft | 451 kts | 294° |
| 2026-04-20 21:36 | -13.19173 | -75.61209 | 28737 ft | 451 kts | 295° |
| 2026-04-20 21:37 | -13.16639 | -75.67086 | 28671 ft | 449 kts | 295° |
| 2026-04-20 21:37 | -13.14095 | -75.72982 | 28660 ft | 450 kts | 295° |
| 2026-04-20 21:38 | -13.11559 | -75.78857 | 28642 ft | 451 kts | 295° |
| 2026-04-20 21:38 | -13.09014 | -75.84749 | 28603 ft | 452 kts | 294° |
| 2026-04-20 21:39 | -13.06466 | -75.90641 | 28550 ft | 451 kts | 295° |
| 2026-04-20 21:39 | -13.03928 | -75.96505 | 28476 ft | 451 kts | 295° |
| 2026-04-20 21:40 | -13.01382 | -76.02385 | 28461 ft | 452 kts | 294° |
| 2026-04-20 21:40 | -13.00119 | -76.05301 | 28179 ft | 436 kts | 294° |
| 2026-04-20 21:40 | -12.98920 | -76.08069 | 27888 ft | 414 kts | 294° |
| 2026-04-20 21:40 | -12.97777 | -76.10706 | 27587 ft | 396 kts | 295° |
| 2026-04-20 21:41 | -12.96685 | -76.13223 | 27149 ft | 380 kts | 295° |
| 2026-04-20 21:41 | -12.95651 | -76.15607 | 26593 ft | 356 kts | 295° |
| 2026-04-20 21:41 | -12.94673 | -76.17860 | 26123 ft | 334 kts | 295° |
| 2026-04-20 21:41 | -12.93763 | -76.19955 | 25671 ft | 315 kts | 295° |
| 2026-04-20 21:42 | -12.92900 | -76.21944 | 25223 ft | 300 kts | 295° |
| 2026-04-20 21:42 | -12.92074 | -76.23845 | 24776 ft | 287 kts | 295° |
| 2026-04-20 21:42 | -12.91269 | -76.25697 | 24346 ft | 282 kts | 295° |
| 2026-04-20 21:42 | -12.90494 | -76.27483 | 23961 ft | 269 kts | 295° |
| 2026-04-20 21:43 | -12.89748 | -76.29198 | 23595 ft | 257 kts | 295° |
| 2026-04-20 21:43 | -12.89035 | -76.30839 | 23235 ft | 252 kts | 295° |
| 2026-04-20 21:43 | -12.88320 | -76.32481 | 22824 ft | 250 kts | 295° |
| 2026-04-20 21:43 | -12.87619 | -76.34095 | 22413 ft | 248 kts | 295° |
| 2026-04-20 21:44 | -12.86927 | -76.35686 | 22007 ft | 245 kts | 295° |
| 2026-04-20 21:44 | -12.86234 | -76.37279 | 21614 ft | 244 kts | 295° |
| 2026-04-20 21:44 | -12.85549 | -76.38854 | 21233 ft | 241 kts | 295° |
| 2026-04-20 21:44 | -12.84871 | -76.40411 | 20850 ft | 240 kts | 295° |
| 2026-04-20 21:45 | -12.84192 | -76.41971 | 20485 ft | 238 kts | 295° |
| 2026-04-20 21:45 | -12.83519 | -76.43516 | 20072 ft | 237 kts | 295° |
| 2026-04-20 21:45 | -12.82857 | -76.45038 | 19662 ft | 235 kts | 295° |
| 2026-04-20 21:45 | -12.82191 | -76.46566 | 19253 ft | 234 kts | 295° |
| 2026-04-20 21:46 | -12.81528 | -76.48089 | 18891 ft | 233 kts | 295° |
| 2026-04-20 21:46 | -12.80865 | -76.49611 | 18436 ft | 235 kts | 295° |
| 2026-04-20 21:46 | -12.80197 | -76.51143 | 17969 ft | 236 kts | 295° |
| 2026-04-20 21:46 | -12.79534 | -76.52665 | 17452 ft | 234 kts | 295° |
| 2026-04-20 21:47 | -12.78872 | -76.54182 | 17027 ft | 232 kts | 295° |
| 2026-04-20 21:47 | -12.78223 | -76.55673 | 16551 ft | 230 kts | 295° |
| 2026-04-20 21:47 | -12.77568 | -76.57175 | 16099 ft | 229 kts | 295° |
| 2026-04-20 21:47 | -12.76924 | -76.58652 | 15581 ft | 228 kts | 295° |
| 2026-04-20 21:48 | -12.76285 | -76.60116 | 15164 ft | 225 kts | 295° |
| 2026-04-20 21:48 | -12.75575 | -76.61545 | 14743 ft | 225 kts | 299° |
| 2026-04-20 21:48 | -12.74833 | -76.62945 | 14261 ft | 222 kts | 299° |
| 2026-04-20 21:48 | -12.74104 | -76.64319 | 13880 ft | 221 kts | 299° |
| 2026-04-20 21:49 | -12.73374 | -76.65698 | 13402 ft | 221 kts | 299° |
| 2026-04-20 21:49 | -12.72646 | -76.67069 | 12975 ft | 219 kts | 299° |
| 2026-04-20 21:49 | -12.71916 | -76.68446 | 12521 ft | 218 kts | 299° |
| 2026-04-20 21:49 | -12.71192 | -76.69809 | 12106 ft | 219 kts | 299° |
| 2026-04-20 21:50 | -12.70468 | -76.71175 | 11574 ft | 219 kts | 299° |
| 2026-04-20 21:50 | -12.69748 | -76.72532 | 11084 ft | 217 kts | 299° |
| 2026-04-20 21:50 | -12.69036 | -76.73872 | 10636 ft | 216 kts | 299° |
| 2026-04-20 21:50 | -12.68312 | -76.75236 | 10155 ft | 217 kts | 299° |
| 2026-04-20 21:51 | -12.67570 | -76.76633 | 9724 ft | 216 kts | 299° |
| 2026-04-20 21:51 | -12.66844 | -76.78000 | 9227 ft | 217 kts | 299° |
| 2026-04-20 21:51 | -12.66123 | -76.79357 | 8748 ft | 215 kts | 299° |
| 2026-04-20 21:51 | -12.65422 | -76.80678 | 8276 ft | 212 kts | 299° |
| 2026-04-20 21:52 | -12.64724 | -76.81992 | 7825 ft | 210 kts | 299° |
| 2026-04-20 21:52 | -12.64024 | -76.83308 | 7366 ft | 209 kts | 299° |
| 2026-04-20 21:52 | -12.63328 | -76.84618 | 6918 ft | 210 kts | 299° |
| 2026-04-20 21:52 | -12.62637 | -76.85918 | 6433 ft | 209 kts | 299° |
| 2026-04-20 21:53 | -12.61942 | -76.87225 | 5977 ft | 207 kts | 299° |
| 2026-04-20 21:53 | -12.61260 | -76.88508 | 5507 ft | 206 kts | 299° |
| 2026-04-20 21:53 | -12.60583 | -76.89780 | 5057 ft | 205 kts | 299° |
| 2026-04-20 21:53 | -12.59900 | -76.91065 | 4597 ft | 204 kts | 299° |
| 2026-04-20 21:54 | -12.59224 | -76.92334 | 4206 ft | 208 kts | 298° |
| 2026-04-20 21:54 | -12.58542 | -76.93616 | 4031 ft | 197 kts | 298° |
| 2026-04-20 21:54 | -12.57880 | -76.94807 | 3984 ft | 181 kts | 311° |
| 2026-04-20 21:54 | -12.56863 | -76.95534 | 4033 ft | 176 kts | 334° |
| 2026-04-20 21:55 | -12.55731 | -76.96121 | 4021 ft | 179 kts | 334° |
| 2026-04-20 21:55 | -12.54603 | -76.96697 | 4035 ft | 181 kts | 334° |
| 2026-04-20 21:55 | -12.53474 | -76.97266 | 4011 ft | 179 kts | 334° |
| 2026-04-20 21:55 | -12.52316 | -76.97849 | 4013 ft | 180 kts | 335° |
| 2026-04-20 21:56 | -12.51179 | -76.98418 | 4008 ft | 180 kts | 335° |
| 2026-04-20 21:56 | -12.50032 | -76.98990 | 4004 ft | 180 kts | 335° |
| 2026-04-20 21:56 | -12.48884 | -76.99562 | 4013 ft | 179 kts | 335° |
| 2026-04-20 21:56 | -12.47736 | -77.00133 | 4005 ft | 178 kts | 335° |
| 2026-04-20 21:57 | -12.46609 | -77.00694 | 4015 ft | 179 kts | 335° |
| 2026-04-20 21:57 | -12.45461 | -77.01266 | 4017 ft | 179 kts | 335° |
| 2026-04-20 21:57 | -12.44319 | -77.01834 | 4011 ft | 180 kts | 335° |
| 2026-04-20 21:57 | -12.43166 | -77.02407 | 4012 ft | 180 kts | 335° |
| 2026-04-20 21:58 | -12.42026 | -77.02974 | 4011 ft | 180 kts | 335° |
| 2026-04-20 21:58 | -12.40906 | -77.03531 | 4009 ft | 179 kts | 335° |
| 2026-04-20 21:58 | -12.39761 | -77.04100 | 4008 ft | 179 kts | 335° |
| 2026-04-20 21:58 | -12.38633 | -77.04660 | 4011 ft | 179 kts | 335° |
| 2026-04-20 21:59 | -12.37485 | -77.05231 | 4002 ft | 180 kts | 335° |
| 2026-04-20 21:59 | -12.36360 | -77.05790 | 4014 ft | 179 kts | 334° |
| 2026-04-20 21:59 | -12.35222 | -77.06355 | 4015 ft | 179 kts | 335° |
| 2026-04-20 21:59 | -12.34104 | -77.06911 | 4014 ft | 179 kts | 335° |
| 2026-04-20 22:00 | -12.32972 | -77.07473 | 4007 ft | 179 kts | 335° |
| 2026-04-20 22:00 | -12.31842 | -77.08034 | 4014 ft | 179 kts | 335° |
| 2026-04-20 22:00 | -12.30713 | -77.08595 | 4013 ft | 180 kts | 335° |
| 2026-04-20 22:00 | -12.29575 | -77.09160 | 4008 ft | 179 kts | 335° |
| 2026-04-20 22:01 | -12.28442 | -77.09723 | 4008 ft | 179 kts | 335° |
| 2026-04-20 22:01 | -12.27316 | -77.10282 | 4010 ft | 180 kts | 335° |
| 2026-04-20 22:01 | -12.26170 | -77.10851 | 3998 ft | 175 kts | 335° |
| 2026-04-20 22:01 | -12.25019 | -77.11423 | 4002 ft | 172 kts | 335° |
| 2026-04-20 22:02 | -12.23870 | -77.11993 | 4010 ft | 173 kts | 335° |
| 2026-04-20 22:02 | -12.22734 | -77.12556 | 4011 ft | 173 kts | 335° |
| 2026-04-20 22:02 | -12.21582 | -77.13128 | 4010 ft | 172 kts | 335° |
| 2026-04-20 22:02 | -12.20435 | -77.13698 | 4011 ft | 173 kts | 335° |
| 2026-04-20 22:03 | -12.19310 | -77.14256 | 4017 ft | 173 kts | 335° |
| 2026-04-20 22:03 | -12.18166 | -77.14823 | 4023 ft | 173 kts | 335° |
| 2026-04-20 22:03 | -12.17043 | -77.15380 | 4023 ft | 172 kts | 335° |
| 2026-04-20 22:03 | -12.15910 | -77.15942 | 4025 ft | 173 kts | 335° |
| 2026-04-20 22:04 | -12.14778 | -77.16504 | 4027 ft | 173 kts | 335° |
| 2026-04-20 22:04 | -12.13621 | -77.17078 | 4028 ft | 172 kts | 335° |
| 2026-04-20 22:04 | -12.12473 | -77.17647 | 4029 ft | 174 kts | 335° |
| 2026-04-20 22:04 | -12.11310 | -77.18224 | 4030 ft | 174 kts | 335° |
| 2026-04-20 22:05 | -12.10160 | -77.18794 | 4027 ft | 173 kts | 335° |
| 2026-04-20 22:05 | -12.09020 | -77.19359 | 4027 ft | 173 kts | 335° |
| 2026-04-20 22:05 | -12.07864 | -77.19933 | 4027 ft | 173 kts | 335° |
| 2026-04-20 22:05 | -12.06709 | -77.20506 | 4027 ft | 173 kts | 335° |
| 2026-04-20 22:06 | -12.05574 | -77.21069 | 3958 ft | 174 kts | 335° |
| 2026-04-20 22:06 | -12.04438 | -77.21632 | 3779 ft | 174 kts | 335° |
| 2026-04-20 22:06 | -12.03318 | -77.22187 | 3599 ft | 172 kts | 335° |
| 2026-04-20 22:06 | -12.02216 | -77.22733 | 3423 ft | 171 kts | 335° |
| 2026-04-20 22:07 | -12.01105 | -77.23299 | 3249 ft | 171 kts | 334° |
| 2026-04-20 22:07 | -12.00008 | -77.23870 | 3076 ft | 172 kts | 334° |
| 2026-04-20 22:07 | -11.98896 | -77.24449 | 2905 ft | 172 kts | 334° |
| 2026-04-20 22:07 | -11.97795 | -77.25023 | 2735 ft | 171 kts | 333° |
| 2026-04-20 22:08 | -11.96687 | -77.25600 | 2561 ft | 171 kts | 333° |
| 2026-04-20 22:08 | -11.95572 | -77.26181 | 2384 ft | 171 kts | 333° |
| 2026-04-20 22:08 | -11.94458 | -77.26762 | 2205 ft | 171 kts | 333° |
| 2026-04-20 22:08 | -11.93359 | -77.27335 | 2034 ft | 171 kts | 333° |
| 2026-04-20 22:09 | -11.92251 | -77.27904 | 1866 ft | 171 kts | 334° |
| 2026-04-20 22:09 | -11.91139 | -77.28453 | 1693 ft | 171 kts | 334° |
| 2026-04-20 22:09 | -11.90027 | -77.29000 | 1535 ft | 170 kts | 334° |
| 2026-04-20 22:09 | -11.88935 | -77.29538 | 1521 ft | 169 kts | 334° |
| 2026-04-20 22:10 | -11.87805 | -77.30094 | 1518 ft | 168 kts | 334° |
| 2026-04-20 22:10 | -11.86675 | -77.30650 | 1521 ft | 168 kts | 334° |
| 2026-04-20 22:10 | -11.85536 | -77.31204 | 1525 ft | 168 kts | 340° |
| 2026-04-20 22:10 | -11.84393 | -77.31213 | 1578 ft | 164 kts | 26° |
| 2026-04-20 22:11 | -11.83579 | -77.30463 | 1549 ft | 159 kts | 65° |
| 2026-04-20 22:11 | -11.83066 | -77.29452 | 1527 ft | 158 kts | 66° |
| 2026-04-20 22:11 | -11.82569 | -77.28448 | 1515 ft | 157 kts | 67° |
| 2026-04-20 22:11 | -11.82081 | -77.27448 | 1515 ft | 158 kts | 68° |
| 2026-04-20 22:12 | -11.81594 | -77.26442 | 1518 ft | 158 kts | 68° |
| 2026-04-20 22:12 | -11.81108 | -77.25436 | 1516 ft | 158 kts | 67° |
| 2026-04-20 22:12 | -11.80652 | -77.24408 | 1506 ft | 157 kts | 82° |
| 2026-04-20 22:12 | -11.80821 | -77.23360 | 1537 ft | 152 kts | 128° |
| 2026-04-20 22:13 | -11.81623 | -77.22613 | 1557 ft | 152 kts | 144° |
| 2026-04-20 22:13 | -11.82497 | -77.21943 | 1534 ft | 151 kts | 145° |
| 2026-04-20 22:13 | -11.83384 | -77.21280 | 1532 ft | 152 kts | 145° |
| 2026-04-20 22:13 | -11.84288 | -77.20618 | 1536 ft | 152 kts | 145° |
| 2026-04-20 22:14 | -11.85152 | -77.19992 | 1532 ft | 150 kts | 146° |
| 2026-04-20 22:14 | -11.86058 | -77.19429 | 1528 ft | 150 kts | 154° |
| 2026-04-20 22:14 | -11.87013 | -77.18951 | 1517 ft | 149 kts | 155° |
| 2026-04-20 22:14 | -11.87953 | -77.18456 | 1446 ft | 150 kts | 153° |
| 2026-04-20 22:15 | -11.88881 | -77.17966 | 1533 ft | 145 kts | 154° |
| 2026-04-20 22:15 | -11.89802 | -77.17525 | 1731 ft | 148 kts | 156° |
| 2026-04-20 22:15 | -11.90760 | -77.17078 | 1705 ft | 150 kts | 156° |
| 2026-04-20 22:15 | -11.91708 | -77.16607 | 1613 ft | 150 kts | 153° |
| 2026-04-20 22:16 | -11.92636 | -77.16142 | 1529 ft | 149 kts | 155° |
| 2026-04-20 22:16 | -11.93571 | -77.15684 | 1486 ft | 148 kts | 156° |
| 2026-04-20 22:16 | -11.94506 | -77.15210 | 1389 ft | 148 kts | 155° |
| 2026-04-20 22:16 | -11.95421 | -77.14759 | 1233 ft | 147 kts | 156° |
| 2026-04-20 22:17 | -11.96350 | -77.14303 | 1012 ft | 146 kts | 156° |
| 2026-04-20 22:17 | -11.97270 | -77.13848 | 795 ft | 144 kts | 155° |
| 2026-04-20 22:17 | -11.98168 | -77.13393 | 558 ft | 143 kts | 156° |
| 2026-04-20 22:17 | -11.99068 | -77.12955 | 395 ft | 141 kts | 157° |
| 2026-04-20 22:18 | -11.99955 | -77.12528 | 244 ft | 140 kts | 156° |
| 2026-04-20 22:18 | -12.00838 | -77.12094 | 147 ft | 139 kts | 158° |
| 2026-04-20 22:18 | -12.01553 | -77.11752 | 129 ft | 79 kts | 148° |
| 2026-04-20 22:18 | -12.01922 | -77.11564 | 129 ft | 36 kts | 156° |
| 2026-04-20 22:19 | -12.02131 | -77.11448 | 129 ft | 30 kts | 140° |
| 2026-04-20 22:19 | -12.02230 | -77.11342 | 129 ft | 17 kts | 133° |
| 2026-04-20 22:19 | -12.02249 | -77.11320 | 129 ft | 0 kts | 129° |
| 2026-04-20 22:19 | -12.02253 | -77.11314 | 129 ft | 6 kts | 130° |
| 2026-04-20 22:20 | -12.02295 | -77.11265 | 129 ft | 9 kts | 131° |
| 2026-04-20 22:20 | -12.02335 | -77.11211 | 129 ft | 7 kts | 124° |
| 2026-04-20 22:20 | -12.02352 | -77.11146 | 129 ft | 11 kts | 93° |
| 2026-04-20 22:20 | -12.02333 | -77.11057 | 129 ft | 14 kts | 54° |
| 2026-04-20 22:21 | -12.02262 | -77.11026 | 129 ft | 13 kts | 332° |
| 2026-04-20 22:21 | -12.02162 | -77.11072 | 129 ft | 18 kts | 332° |
| 2026-04-20 22:21 | -12.02066 | -77.11128 | 129 ft | 5 kts | 340° |
| 2026-04-20 22:21 | -12.02023 | -77.11150 | 129 ft | 8 kts | 329° |
| 2026-04-20 22:22 | -12.01989 | -77.11155 | 129 ft | 0 kts | 8° |